Ghedi Air Base

LIPL · Lombardy, 意大利

罗盘
风向 的 风向 070° Ghedi Air Base 13/31
风: 14 kt, 4 beaufort

6 kt

13 kt
改变
0 ft 1.000 2.000 3.000 4.000 5.000
Cloud Cloud Cloud Cloud
SCT 2.600
Cloud Cloud Cloud Cloud Cloud Cloud
BKN 3.400
METAR LIPL 262355Z 07014KT 6000 -RA SCT026 BKN034 06/06 Q1005

METAR Ghedi Air Base - LIPL

Ghedi Air Base是,意大利中的中型机场。 该机场位于纬度45,43220和经度10,26770。 该机场有一条跑道: 13/31. 本场的ICAO机场代码为LIPL。 机场在Milano FIR中。

该航空气象观测是针对Ghedi Air Base在2024年2月27日 00:55, 当地时间进行的。

机场观察

风向为070°,速度为14 kt。

可见度为6 km。

有疏云,零星散落的云朵在2.600 ft的高度 和 碎云在3.400 ft的高度。 破损或更高的上限为3.400 ft。

当前天气为光 雨。 温度为6 °C,阵风为0 °C。 露点为6 °C,相对湿度为100%。 海平面上的气压为1005 hPa (QNH)。

白天

今天,太阳从07:01升起,在18:02降落。 这适用于Ghedi Air Base,世界夏令时可能有所不同。 当地时间与世界标准时间之间的时差为+1 小时。 当前,没有夏令时有效。

公司介绍

我们没有关于这个机场的公司信息。

体会

到Vliegles.nl去找飞行课程,跳伞和其他飞行体验。 浏览页面,了解Ghedi Air Base附近所有可用的活动。 你也可以使用搜索功能来寻找你所在地附近的特定飞行课程、跳伞或其他飞行体验。

跑道

Id 标题 侧风 逆风 侧风 %
13/31 135°-315° 13 kt 6 kt 91 %

逆风成分最大的方向会被突出显示,并用于横风计算。 这并不一定意味着这个方向在使用。

乌云

2.600 ft SCT 疏云,零星散落的云朵
3.400 ft BKN 碎云

温度 & 天气

天气 光 雨
温度 6 °C
露点 6 °C
相对湿度 100%
风寒 0 °C
Kp-index 2 (0-9)

白天

日出
07:03 (5:20)
中午
12:31
日落
18:00

小工具

你想在你的网站上有一个关于Ghedi Air Base的当前航空天气(METAR)的小部件吗?

显示HTML代码
?>